sensor_id;sensor_type;location;lat;lon;timestamp;temperature;humidity
12700;DHT22;6414;49.570;6.060;2023-07-13T00:00:13;15.80;99.90
12700;DHT22;6414;49.570;6.060;2023-07-13T00:03:00;15.90;99.90
12700;DHT22;6414;49.570;6.060;2023-07-13T00:05:46;15.80;99.90
12700;DHT22;6414;49.570;6.060;2023-07-13T00:08:32;15.80;99.90
12700;DHT22;6414;49.570;6.060;2023-07-13T00:11:19;15.90;99.90
12700;DHT22;6414;49.570;6.060;2023-07-13T00:14:05;16.00;99.90
12700;DHT22;6414;49.570;6.060;2023-07-13T00:16:51;15.90;99.90
12700;DHT22;6414;49.570;6.060;2023-07-13T00:19:38;15.90;99.90
12700;DHT22;6414;49.570;6.060;2023-07-13T00:22:24;15.90;99.90
12700;DHT22;6414;49.570;6.060;2023-07-13T00:25:13;15.80;99.90
12700;DHT22;6414;49.570;6.060;2023-07-13T00:27:59;15.80;99.90
12700;DHT22;6414;49.570;6.060;2023-07-13T00:30:45;15.60;99.90
12700;DHT22;6414;49.570;6.060;2023-07-13T00:33:32;15.30;99.90
12700;DHT22;6414;49.570;6.060;2023-07-13T00:36:19;15.30;99.90
12700;DHT22;6414;49.570;6.060;2023-07-13T00:39:05;15.10;99.90
12700;DHT22;6414;49.570;6.060;2023-07-13T00:41:51;15.10;99.90
12700;DHT22;6414;49.570;6.060;2023-07-13T00:44:37;15.20;99.90
12700;DHT22;6414;49.570;6.060;2023-07-13T00:47:23;15.20;99.90
12700;DHT22;6414;49.570;6.060;2023-07-13T00:50:11;15.30;99.90
12700;DHT22;6414;49.570;6.060;2023-07-13T00:52:57;15.20;99.90
12700;DHT22;6414;49.570;6.060;2023-07-13T00:55:43;15.30;99.90
12700;DHT22;6414;49.570;6.060;2023-07-13T00:58:29;15.30;99.90
12700;DHT22;6414;49.570;6.060;2023-07-13T01:01:15;15.40;99.90
12700;DHT22;6414;49.570;6.060;2023-07-13T01:04:02;15.50;99.90
12700;DHT22;6414;49.570;6.060;2023-07-13T01:06:49;15.50;99.90
12700;DHT22;6414;49.570;6.060;2023-07-13T01:09:35;15.50;99.90
12700;DHT22;6414;49.570;6.060;2023-07-13T01:12:22;15.40;99.90
12700;DHT22;6414;49.570;6.060;2023-07-13T01:15:47;15.30;99.90
12700;DHT22;6414;49.570;6.060;2023-07-13T01:18:27;15.30;99.90
12700;DHT22;6414;49.570;6.060;2023-07-13T01:21:13;15.30;99.90
12700;DHT22;6414;49.570;6.060;2023-07-13T01:24:00;15.20;99.90
12700;DHT22;6414;49.570;6.060;2023-07-13T01:26:46;15.20;99.90
12700;DHT22;6414;49.570;6.060;2023-07-13T01:29:33;15.30;99.90
12700;DHT22;6414;49.570;6.060;2023-07-13T01:32:21;15.30;99.90
12700;DHT22;6414;49.570;6.060;2023-07-13T01:35:07;15.30;99.90
12700;DHT22;6414;49.570;6.060;2023-07-13T01:37:54;15.20;99.90
12700;DHT22;6414;49.570;6.060;2023-07-13T01:40:41;15.20;99.90
12700;DHT22;6414;49.570;6.060;2023-07-13T01:43:27;15.20;99.90
12700;DHT22;6414;49.570;6.060;2023-07-13T01:46:13;15.30;99.90
12700;DHT22;6414;49.570;6.060;2023-07-13T01:48:59;15.40;99.90
12700;DHT22;6414;49.570;6.060;2023-07-13T01:51:46;15.40;99.90
12700;DHT22;6414;49.570;6.060;2023-07-13T01:54:33;15.50;99.90
12700;DHT22;6414;49.570;6.060;2023-07-13T01:57:19;15.50;99.90
12700;DHT22;6414;49.570;6.060;2023-07-13T02:00:06;15.40;99.90
12700;DHT22;6414;49.570;6.060;2023-07-13T02:02:53;15.40;99.90
12700;DHT22;6414;49.570;6.060;2023-07-13T02:05:39;15.40;99.90
12700;DHT22;6414;49.570;6.060;2023-07-13T02:08:25;15.50;99.90
12700;DHT22;6414;49.570;6.060;2023-07-13T02:11:11;15.40;99.90
12700;DHT22;6414;49.570;6.060;2023-07-13T02:14:01;15.40;99.90
12700;DHT22;6414;49.570;6.060;2023-07-13T02:16:49;15.40;99.90
12700;DHT22;6414;49.570;6.060;2023-07-13T02:19:35;15.40;99.90
12700;DHT22;6414;49.570;6.060;2023-07-13T02:22:22;15.50;99.90
12700;DHT22;6414;49.570;6.060;2023-07-13T02:25:08;15.40;99.90
12700;DHT22;6414;49.570;6.060;2023-07-13T02:27:55;15.40;99.90
12700;DHT22;6414;49.570;6.060;2023-07-13T02:30:41;15.40;99.90
12700;DHT22;6414;49.570;6.060;2023-07-13T02:33:27;15.40;99.90
12700;DHT22;6414;49.570;6.060;2023-07-13T02:36:15;15.30;99.90
12700;DHT22;6414;49.570;6.060;2023-07-13T02:39:01;15.30;99.90
12700;DHT22;6414;49.570;6.060;2023-07-13T02:41:46;15.30;99.90
12700;DHT22;6414;49.570;6.060;2023-07-13T02:44:33;15.20;99.90
12700;DHT22;6414;49.570;6.060;2023-07-13T02:47:20;15.10;99.90
12700;DHT22;6414;49.570;6.060;2023-07-13T02:50:07;15.00;99.90
12700;DHT22;6414;49.570;6.060;2023-07-13T02:52:53;15.10;99.90
12700;DHT22;6414;49.570;6.060;2023-07-13T02:55:39;15.10;99.90
12700;DHT22;6414;49.570;6.060;2023-07-13T02:58:25;14.70;99.90
12700;DHT22;6414;49.570;6.060;2023-07-13T03:01:12;14.80;99.90
12700;DHT22;6414;49.570;6.060;2023-07-13T03:03:58;14.80;99.90
12700;DHT22;6414;49.570;6.060;2023-07-13T03:06:45;14.70;99.90
12700;DHT22;6414;49.570;6.060;2023-07-13T03:09:31;14.70;99.90
12700;DHT22;6414;49.570;6.060;2023-07-13T03:12:18;14.90;99.90
12700;DHT22;6414;49.570;6.060;2023-07-13T03:15:04;14.90;99.90
12700;DHT22;6414;49.570;6.060;2023-07-13T03:17:50;14.90;99.90
12700;DHT22;6414;49.570;6.060;2023-07-13T03:20:36;15.00;99.90
12700;DHT22;6414;49.570;6.060;2023-07-13T03:23:22;15.00;99.90
12700;DHT22;6414;49.570;6.060;2023-07-13T03:26:09;15.10;99.90
12700;DHT22;6414;49.570;6.060;2023-07-13T03:28:54;15.00;99.90
12700;DHT22;6414;49.570;6.060;2023-07-13T03:31:41;14.90;99.90
12700;DHT22;6414;49.570;6.060;2023-07-13T03:34:28;14.90;99.90
12700;DHT22;6414;49.570;6.060;2023-07-13T03:37:13;14.90;99.90
12700;DHT22;6414;49.570;6.060;2023-07-13T03:40:01;14.80;99.90
12700;DHT22;6414;49.570;6.060;2023-07-13T03:42:48;14.80;99.90
12700;DHT22;6414;49.570;6.060;2023-07-13T03:45:34;14.70;99.90
12700;DHT22;6414;49.570;6.060;2023-07-13T03:48:21;14.80;99.90
12700;DHT22;6414;49.570;6.060;2023-07-13T03:51:08;14.70;99.90
12700;DHT22;6414;49.570;6.060;2023-07-13T03:53:54;14.70;99.90
12700;DHT22;6414;49.570;6.060;2023-07-13T03:56:41;14.80;99.90
12700;DHT22;6414;49.570;6.060;2023-07-13T03:59:27;14.80;99.90
12700;DHT22;6414;49.570;6.060;2023-07-13T04:02:13;15.00;99.90
12700;DHT22;6414;49.570;6.060;2023-07-13T04:05:00;15.00;99.90
12700;DHT22;6414;49.570;6.060;2023-07-13T04:07:46;15.00;99.90
12700;DHT22;6414;49.570;6.060;2023-07-13T04:10:33;15.10;99.90
12700;DHT22;6414;49.570;6.060;2023-07-13T04:13:19;15.00;99.90
12700;DHT22;6414;49.570;6.060;2023-07-13T04:16:05;15.10;99.90
12700;DHT22;6414;49.570;6.060;2023-07-13T04:18:51;15.00;99.90
12700;DHT22;6414;49.570;6.060;2023-07-13T04:21:40;15.00;99.90
12700;DHT22;6414;49.570;6.060;2023-07-13T04:24:27;15.00;99.90
12700;DHT22;6414;49.570;6.060;2023-07-13T04:27:14;14.90;99.90
12700;DHT22;6414;49.570;6.060;2023-07-13T04:30:00;14.90;99.90
12700;DHT22;6414;49.570;6.060;2023-07-13T04:32:47;14.90;99.90
12700;DHT22;6414;49.570;6.060;2023-07-13T04:35:33;14.90;99.90
12700;DHT22;6414;49.570;6.060;2023-07-13T04:38:20;14.90;99.90
12700;DHT22;6414;49.570;6.060;2023-07-13T04:41:07;14.90;99.90
12700;DHT22;6414;49.570;6.060;2023-07-13T04:43:51;15.00;99.90
12700;DHT22;6414;49.570;6.060;2023-07-13T04:46:37;15.10;99.90
12700;DHT22;6414;49.570;6.060;2023-07-13T04:49:23;15.40;99.90
12700;DHT22;6414;49.570;6.060;2023-07-13T04:52:10;15.40;99.90
12700;DHT22;6414;49.570;6.060;2023-07-13T04:54:57;15.40;99.90
12700;DHT22;6414;49.570;6.060;2023-07-13T04:57:43;15.30;99.90
12700;DHT22;6414;49.570;6.060;2023-07-13T05:00:29;15.30;99.90
12700;DHT22;6414;49.570;6.060;2023-07-13T05:03:16;15.20;99.90
12700;DHT22;6414;49.570;6.060;2023-07-13T05:06:06;15.20;99.90
12700;DHT22;6414;49.570;6.060;2023-07-13T05:08:52;15.40;99.90
12700;DHT22;6414;49.570;6.060;2023-07-13T05:11:39;15.50;99.90
12700;DHT22;6414;49.570;6.060;2023-07-13T05:14:25;15.50;99.90
12700;DHT22;6414;49.570;6.060;2023-07-13T05:17:11;15.70;99.90
12700;DHT22;6414;49.570;6.060;2023-07-13T05:19:58;15.80;99.90
12700;DHT22;6414;49.570;6.060;2023-07-13T05:22:44;15.80;99.90
12700;DHT22;6414;49.570;6.060;2023-07-13T05:25:30;15.90;99.90
12700;DHT22;6414;49.570;6.060;2023-07-13T05:28:16;16.10;99.90
12700;DHT22;6414;49.570;6.060;2023-07-13T05:31:02;16.10;99.90
12700;DHT22;6414;49.570;6.060;2023-07-13T05:33:48;16.20;99.90
12700;DHT22;6414;49.570;6.060;2023-07-13T05:36:34;16.20;99.90
12700;DHT22;6414;49.570;6.060;2023-07-13T05:39:21;16.20;99.90
12700;DHT22;6414;49.570;6.060;2023-07-13T05:42:07;16.30;99.90
12700;DHT22;6414;49.570;6.060;2023-07-13T05:44:52;16.30;99.90
12700;DHT22;6414;49.570;6.060;2023-07-13T05:47:39;16.50;99.90
12700;DHT22;6414;49.570;6.060;2023-07-13T05:50:26;16.50;99.90
12700;DHT22;6414;49.570;6.060;2023-07-13T05:53:11;16.60;99.90
12700;DHT22;6414;49.570;6.060;2023-07-13T05:55:57;16.70;99.90
12700;DHT22;6414;49.570;6.060;2023-07-13T05:58:44;16.80;99.90
12700;DHT22;6414;49.570;6.060;2023-07-13T06:01:30;16.80;99.90
12700;DHT22;6414;49.570;6.060;2023-07-13T06:04:17;16.80;99.90
12700;DHT22;6414;49.570;6.060;2023-07-13T06:07:03;16.70;99.90
12700;DHT22;6414;49.570;6.060;2023-07-13T06:09:48;16.90;99.90
12700;DHT22;6414;49.570;6.060;2023-07-13T06:12:35;17.10;99.90
12700;DHT22;6414;49.570;6.060;2023-07-13T06:15:22;17.60;99.90
12700;DHT22;6414;49.570;6.060;2023-07-13T06:18:09;17.70;99.90
12700;DHT22;6414;49.570;6.060;2023-07-13T06:20:55;17.70;99.90
12700;DHT22;6414;49.570;6.060;2023-07-13T06:23:41;17.80;99.90
12700;DHT22;6414;49.570;6.060;2023-07-13T06:26:28;17.80;75.40
12700;DHT22;6414;49.570;6.060;2023-07-13T06:29:14;17.80;70.60
12700;DHT22;6414;49.570;6.060;2023-07-13T06:32:00;17.90;41.00
12700;DHT22;6414;49.570;6.060;2023-07-13T06:34:47;17.90;99.90
12700;DHT22;6414;49.570;6.060;2023-07-13T06:37:33;17.90;99.90
12700;DHT22;6414;49.570;6.060;2023-07-13T06:40:20;18.10;64.00
12700;DHT22;6414;49.570;6.060;2023-07-13T06:43:06;18.20;1.00
12700;DHT22;6414;49.570;6.060;2023-07-13T06:46:33;18.30;1.00
12700;DHT22;6414;49.570;6.060;2023-07-13T06:49:19;18.30;1.00
12700;DHT22;6414;49.570;6.060;2023-07-13T06:52:06;18.20;1.00
12700;DHT22;6414;49.570;6.060;2023-07-13T06:54:53;18.40;1.00
12700;DHT22;6414;49.570;6.060;2023-07-13T06:57:39;18.40;1.00
12700;DHT22;6414;49.570;6.060;2023-07-13T07:00:26;18.50;1.00
12700;DHT22;6414;49.570;6.060;2023-07-13T07:03:12;18.50;1.00
12700;DHT22;6414;49.570;6.060;2023-07-13T07:06:10;18.40;1.00
12700;DHT22;6414;49.570;6.060;2023-07-13T07:08:47;18.40;1.00
12700;DHT22;6414;49.570;6.060;2023-07-13T07:11:33;18.50;1.00
12700;DHT22;6414;49.570;6.060;2023-07-13T07:14:19;18.30;1.00
12700;DHT22;6414;49.570;6.060;2023-07-13T07:17:06;18.20;1.00
12700;DHT22;6414;49.570;6.060;2023-07-13T07:19:52;18.30;74.00
12700;DHT22;6414;49.570;6.060;2023-07-13T07:22:39;18.40;1.00
12700;DHT22;6414;49.570;6.060;2023-07-13T07:25:25;18.50;1.00
12700;DHT22;6414;49.570;6.060;2023-07-13T07:28:12;18.50;1.00
12700;DHT22;6414;49.570;6.060;2023-07-13T07:30:57;18.50;1.00
12700;DHT22;6414;49.570;6.060;2023-07-13T07:33:44;18.60;1.00
12700;DHT22;6414;49.570;6.060;2023-07-13T07:36:30;18.60;1.00
12700;DHT22;6414;49.570;6.060;2023-07-13T07:39:16;18.60;1.00
12700;DHT22;6414;49.570;6.060;2023-07-13T07:42:03;18.80;99.90
12700;DHT22;6414;49.570;6.060;2023-07-13T07:44:49;18.80;99.90
12700;DHT22;6414;49.570;6.060;2023-07-13T07:47:35;18.90;1.00
12700;DHT22;6414;49.570;6.060;2023-07-13T07:50:22;19.00;1.00
12700;DHT22;6414;49.570;6.060;2023-07-13T07:53:08;19.00;1.00
12700;DHT22;6414;49.570;6.060;2023-07-13T07:55:54;19.20;1.00
12700;DHT22;6414;49.570;6.060;2023-07-13T07:58:40;19.20;1.00
12700;DHT22;6414;49.570;6.060;2023-07-13T08:01:27;19.00;1.00
12700;DHT22;6414;49.570;6.060;2023-07-13T08:04:14;19.00;1.00
12700;DHT22;6414;49.570;6.060;2023-07-13T08:07:00;19.00;1.00
12700;DHT22;6414;49.570;6.060;2023-07-13T08:09:46;18.90;1.00
12700;DHT22;6414;49.570;6.060;2023-07-13T08:12:36;19.00;1.00
12700;DHT22;6414;49.570;6.060;2023-07-13T08:15:21;19.20;99.90
12700;DHT22;6414;49.570;6.060;2023-07-13T08:18:08;19.50;99.90
12700;DHT22;6414;49.570;6.060;2023-07-13T08:20:55;19.70;1.00
12700;DHT22;6414;49.570;6.060;2023-07-13T08:23:41;19.70;1.00
12700;DHT22;6414;49.570;6.060;2023-07-13T08:26:28;20.00;99.90
12700;DHT22;6414;49.570;6.060;2023-07-13T08:29:14;20.00;99.90
12700;DHT22;6414;49.570;6.060;2023-07-13T08:32:01;20.10;1.00
12700;DHT22;6414;49.570;6.060;2023-07-13T08:34:48;20.10;1.00
12700;DHT22;6414;49.570;6.060;2023-07-13T08:37:34;20.10;1.00
12700;DHT22;6414;49.570;6.060;2023-07-13T08:40:22;20.40;99.90
12700;DHT22;6414;49.570;6.060;2023-07-13T08:43:06;20.50;1.00
12700;DHT22;6414;49.570;6.060;2023-07-13T08:46:41;20.50;1.00
12700;DHT22;6414;49.570;6.060;2023-07-13T08:48:42;20.50;99.90
12700;DHT22;6414;49.570;6.060;2023-07-13T08:51:39;20.70;1.00
12700;DHT22;6414;49.570;6.060;2023-07-13T08:54:32;20.60;99.90
12700;DHT22;6414;49.570;6.060;2023-07-13T08:57:27;20.50;88.70
12700;DHT22;6414;49.570;6.060;2023-07-13T09:00:04;20.50;91.10
12700;DHT22;6414;49.570;6.060;2023-07-13T09:02:52;20.60;90.80
12700;DHT22;6414;49.570;6.060;2023-07-13T09:05:38;20.60;93.90
12700;DHT22;6414;49.570;6.060;2023-07-13T09:08:33;20.80;1.00
12700;DHT22;6414;49.570;6.060;2023-07-13T09:11:27;21.00;1.00
12700;DHT22;6414;49.570;6.060;2023-07-13T09:16:58;21.40;1.00
12700;DHT22;6414;49.570;6.060;2023-07-13T09:19:46;21.90;1.00
12700;DHT22;6414;49.570;6.060;2023-07-13T09:22:32;22.40;99.90
12700;DHT22;6414;49.570;6.060;2023-07-13T09:25:24;22.40;99.90
12700;DHT22;6414;49.570;6.060;2023-07-13T09:28:23;22.70;99.90
12700;DHT22;6414;49.570;6.060;2023-07-13T09:31:13;22.60;99.90
12700;DHT22;6414;49.570;6.060;2023-07-13T09:33:57;22.90;99.90
12700;DHT22;6414;49.570;6.060;2023-07-13T09:36:43;22.90;99.90
12700;DHT22;6414;49.570;6.060;2023-07-13T09:39:30;22.30;99.90
12700;DHT22;6414;49.570;6.060;2023-07-13T09:42:19;22.30;99.90
12700;DHT22;6414;49.570;6.060;2023-07-13T09:45:04;22.30;99.90
12700;DHT22;6414;49.570;6.060;2023-07-13T09:47:53;21.90;99.90
12700;DHT22;6414;49.570;6.060;2023-07-13T09:50:37;22.60;99.90
12700;DHT22;6414;49.570;6.060;2023-07-13T09:53:24;22.60;99.90
12700;DHT22;6414;49.570;6.060;2023-07-13T09:56:23;22.70;99.90
12700;DHT22;6414;49.570;6.060;2023-07-13T09:59:18;23.10;99.90
12700;DHT22;6414;49.570;6.060;2023-07-13T10:02:15;23.30;41.80
12700;DHT22;6414;49.570;6.060;2023-07-13T10:04:54;24.00;26.70
12700;DHT22;6414;49.570;6.060;2023-07-13T10:07:37;24.10;21.20
12700;DHT22;6414;49.570;6.060;2023-07-13T10:10:21;23.10;50.30
12700;DHT22;6414;49.570;6.060;2023-07-13T10:13:20;22.70;99.90
12700;DHT22;6414;49.570;6.060;2023-07-13T10:15:53;22.00;99.90
12700;DHT22;6414;49.570;6.060;2023-07-13T10:19:02;21.80;99.90
12700;DHT22;6414;49.570;6.060;2023-07-13T10:21:55;23.10;99.90
12700;DHT22;6414;49.570;6.060;2023-07-13T10:24:40;23.80;11.50
12700;DHT22;6414;49.570;6.060;2023-07-13T10:27:31;23.90;13.80
12700;DHT22;6414;49.570;6.060;2023-07-13T10:30:21;24.40;1.00
12700;DHT22;6414;49.570;6.060;2023-07-13T10:33:10;24.10;1.00
12700;DHT22;6414;49.570;6.060;2023-07-13T10:36:04;24.10;1.00
12700;DHT22;6414;49.570;6.060;2023-07-13T10:38:46;24.00;1.00
12700;DHT22;6414;49.570;6.060;2023-07-13T10:41:33;24.80;1.00
12700;DHT22;6414;49.570;6.060;2023-07-13T10:44:24;25.00;1.00
12700;DHT22;6414;49.570;6.060;2023-07-13T10:47:08;23.70;1.00
12700;DHT22;6414;49.570;6.060;2023-07-13T10:49:56;23.50;1.00
12700;DHT22;6414;49.570;6.060;2023-07-13T10:52:42;23.50;1.00
12700;DHT22;6414;49.570;6.060;2023-07-13T10:58:38;23.70;1.00
12700;DHT22;6414;49.570;6.060;2023-07-13T11:01:24;23.80;1.00
12700;DHT22;6414;49.570;6.060;2023-07-13T11:04:11;23.90;1.00
12700;DHT22;6414;49.570;6.060;2023-07-13T11:06:58;23.40;1.00
12700;DHT22;6414;49.570;6.060;2023-07-13T11:09:43;23.20;1.00
12700;DHT22;6414;49.570;6.060;2023-07-13T11:12:52;22.70;1.00
12700;DHT22;6414;49.570;6.060;2023-07-13T11:15:26;22.40;1.00
12700;DHT22;6414;49.570;6.060;2023-07-13T11:18:04;22.20;1.00
12700;DHT22;6414;49.570;6.060;2023-07-13T11:20:50;21.90;1.00
12700;DHT22;6414;49.570;6.060;2023-07-13T11:23:36;21.80;1.00
12700;DHT22;6414;49.570;6.060;2023-07-13T11:29:37;22.00;99.90
12700;DHT22;6414;49.570;6.060;2023-07-13T11:32:30;22.20;90.50
12700;DHT22;6414;49.570;6.060;2023-07-13T11:35:13;22.20;90.90
12700;DHT22;6414;49.570;6.060;2023-07-13T11:37:58;22.20;21.30
12700;DHT22;6414;49.570;6.060;2023-07-13T11:40:45;22.50;33.70
12700;DHT22;6414;49.570;6.060;2023-07-13T11:43:30;22.40;34.40
12700;DHT22;6414;49.570;6.060;2023-07-13T11:46:20;22.40;35.00
12700;DHT22;6414;49.570;6.060;2023-07-13T11:49:05;22.30;97.90
12700;DHT22;6414;49.570;6.060;2023-07-13T11:51:51;22.20;99.90
12700;DHT22;6414;49.570;6.060;2023-07-13T11:54:51;22.20;99.90
12700;DHT22;6414;49.570;6.060;2023-07-13T11:57:38;22.20;99.90
12700;DHT22;6414;49.570;6.060;2023-07-13T12:00:23;22.00;86.90
12700;DHT22;6414;49.570;6.060;2023-07-13T12:03:10;22.00;85.20
12700;DHT22;6414;49.570;6.060;2023-07-13T12:06:05;21.90;99.90
12700;DHT22;6414;49.570;6.060;2023-07-13T12:08:48;22.10;10.50
12700;DHT22;6414;49.570;6.060;2023-07-13T12:11:35;22.10;9.10
12700;DHT22;6414;49.570;6.060;2023-07-13T12:14:20;22.70;99.90
12700;DHT22;6414;49.570;6.060;2023-07-13T12:17:19;23.10;20.50
12700;DHT22;6414;49.570;6.060;2023-07-13T12:20:14;22.90;1.00
12700;DHT22;6414;49.570;6.060;2023-07-13T12:22:51;22.80;1.00
12700;DHT22;6414;49.570;6.060;2023-07-13T12:25:37;22.30;10.90
12700;DHT22;6414;49.570;6.060;2023-07-13T12:28:34;22.20;10.60
12700;DHT22;6414;49.570;6.060;2023-07-13T12:31:40;22.10;86.50
12700;DHT22;6414;49.570;6.060;2023-07-13T12:34:24;21.90;92.00
12700;DHT22;6414;49.570;6.060;2023-07-13T12:37:09;21.60;86.00
12700;DHT22;6414;49.570;6.060;2023-07-13T12:39:55;21.40;99.90
12700;DHT22;6414;49.570;6.060;2023-07-13T12:42:41;21.20;99.90
12700;DHT22;6414;49.570;6.060;2023-07-13T12:45:28;21.10;99.90
12700;DHT22;6414;49.570;6.060;2023-07-13T12:48:14;21.00;99.90
12700;DHT22;6414;49.570;6.060;2023-07-13T12:51:00;21.10;1.00
12700;DHT22;6414;49.570;6.060;2023-07-13T12:53:50;21.00;1.00
12700;DHT22;6414;49.570;6.060;2023-07-13T12:56:36;21.40;1.00
12700;DHT22;6414;49.570;6.060;2023-07-13T12:59:23;21.40;1.00
12700;DHT22;6414;49.570;6.060;2023-07-13T13:02:31;21.60;99.90
12700;DHT22;6414;49.570;6.060;2023-07-13T13:05:17;22.00;99.90
12700;DHT22;6414;49.570;6.060;2023-07-13T13:08:04;21.90;99.90
12700;DHT22;6414;49.570;6.060;2023-07-13T13:10:49;21.90;99.90
12700;DHT22;6414;49.570;6.060;2023-07-13T13:13:36;22.00;99.90
12700;DHT22;6414;49.570;6.060;2023-07-13T13:19:18;22.30;99.90
12700;DHT22;6414;49.570;6.060;2023-07-13T13:22:04;22.30;99.90
12700;DHT22;6414;49.570;6.060;2023-07-13T13:24:50;22.20;99.90
12700;DHT22;6414;49.570;6.060;2023-07-13T13:27:37;22.30;99.90
12700;DHT22;6414;49.570;6.060;2023-07-13T13:30:23;22.20;99.90
12700;DHT22;6414;49.570;6.060;2023-07-13T13:33:13;22.20;99.90
12700;DHT22;6414;49.570;6.060;2023-07-13T13:35:59;22.50;99.90
12700;DHT22;6414;49.570;6.060;2023-07-13T13:38:45;22.40;99.90
12700;DHT22;6414;49.570;6.060;2023-07-13T13:41:31;22.40;99.90
12700;DHT22;6414;49.570;6.060;2023-07-13T13:44:17;22.10;99.90
12700;DHT22;6414;49.570;6.060;2023-07-13T13:47:05;22.00;99.90
12700;DHT22;6414;49.570;6.060;2023-07-13T13:49:51;22.00;99.90
12700;DHT22;6414;49.570;6.060;2023-07-13T13:52:37;22.20;99.90
12700;DHT22;6414;49.570;6.060;2023-07-13T13:55:23;22.50;99.90
12700;DHT22;6414;49.570;6.060;2023-07-13T13:58:09;22.40;99.90
12700;DHT22;6414;49.570;6.060;2023-07-13T14:00:55;22.50;99.90
12700;DHT22;6414;49.570;6.060;2023-07-13T14:03:42;22.60;32.90
12700;DHT22;6414;49.570;6.060;2023-07-13T14:06:28;22.60;36.70
12700;DHT22;6414;49.570;6.060;2023-07-13T14:09:17;22.60;69.60
12700;DHT22;6414;49.570;6.060;2023-07-13T14:12:01;22.60;69.80
12700;DHT22;6414;49.570;6.060;2023-07-13T14:14:47;22.70;99.90
12700;DHT22;6414;49.570;6.060;2023-07-13T14:17:34;22.70;45.50
12700;DHT22;6414;49.570;6.060;2023-07-13T14:20:20;22.40;99.90
12700;DHT22;6414;49.570;6.060;2023-07-13T14:23:06;22.20;99.90
12700;DHT22;6414;49.570;6.060;2023-07-13T14:25:52;22.20;99.90
12700;DHT22;6414;49.570;6.060;2023-07-13T14:28:40;22.50;97.60
12700;DHT22;6414;49.570;6.060;2023-07-13T14:31:25;22.80;83.10
12700;DHT22;6414;49.570;6.060;2023-07-13T14:34:11;23.00;1.00
12700;DHT22;6414;49.570;6.060;2023-07-13T14:36:56;23.10;29.10
12700;DHT22;6414;49.570;6.060;2023-07-13T14:39:44;22.90;14.70
12700;DHT22;6414;49.570;6.060;2023-07-13T14:42:29;22.90;45.00
12700;DHT22;6414;49.570;6.060;2023-07-13T14:45:16;23.30;17.50
12700;DHT22;6414;49.570;6.060;2023-07-13T14:48:01;23.40;1.00
12700;DHT22;6414;49.570;6.060;2023-07-13T14:50:49;23.40;1.00
12700;DHT22;6414;49.570;6.060;2023-07-13T14:53:33;23.20;1.00
12700;DHT22;6414;49.570;6.060;2023-07-13T14:56:19;23.30;1.00
12700;DHT22;6414;49.570;6.060;2023-07-13T14:59:05;23.30;1.00
12700;DHT22;6414;49.570;6.060;2023-07-13T15:01:52;23.00;13.50
12700;DHT22;6414;49.570;6.060;2023-07-13T15:04:38;23.00;9.50
12700;DHT22;6414;49.570;6.060;2023-07-13T15:07:24;23.00;9.40
12700;DHT22;6414;49.570;6.060;2023-07-13T15:10:24;22.70;28.30
12700;DHT22;6414;49.570;6.060;2023-07-13T15:13:19;22.80;46.80
12700;DHT22;6414;49.570;6.060;2023-07-13T15:16:03;23.10;43.00
12700;DHT22;6414;49.570;6.060;2023-07-13T15:18:49;23.10;1.00
12700;DHT22;6414;49.570;6.060;2023-07-13T15:21:35;23.00;35.80
12700;DHT22;6414;49.570;6.060;2023-07-13T15:24:21;23.10;1.00
12700;DHT22;6414;49.570;6.060;2023-07-13T15:27:13;23.40;1.00
12700;DHT22;6414;49.570;6.060;2023-07-13T15:29:59;23.50;1.00
12700;DHT22;6414;49.570;6.060;2023-07-13T15:32:45;23.20;1.00
12700;DHT22;6414;49.570;6.060;2023-07-13T15:35:31;23.00;1.00
12700;DHT22;6414;49.570;6.060;2023-07-13T15:38:20;22.70;1.00
12700;DHT22;6414;49.570;6.060;2023-07-13T15:44:05;23.00;1.00
12700;DHT22;6414;49.570;6.060;2023-07-13T15:46:50;22.80;1.00
12700;DHT22;6414;49.570;6.060;2023-07-13T15:49:36;22.70;1.00
12700;DHT22;6414;49.570;6.060;2023-07-13T15:52:22;22.70;1.00
12700;DHT22;6414;49.570;6.060;2023-07-13T15:55:12;22.80;1.00
12700;DHT22;6414;49.570;6.060;2023-07-13T15:57:57;22.90;1.00
12700;DHT22;6414;49.570;6.060;2023-07-13T16:00:44;22.40;33.30
12700;DHT22;6414;49.570;6.060;2023-07-13T16:03:30;22.40;34.40
12700;DHT22;6414;49.570;6.060;2023-07-13T16:06:28;22.20;37.40
12700;DHT22;6414;49.570;6.060;2023-07-13T16:09:10;22.30;90.60
12700;DHT22;6414;49.570;6.060;2023-07-13T16:11:54;22.90;33.20
12700;DHT22;6414;49.570;6.060;2023-07-13T16:14:41;23.10;10.30
12700;DHT22;6414;49.570;6.060;2023-07-13T16:17:26;22.70;1.00
12700;DHT22;6414;49.570;6.060;2023-07-13T16:20:12;22.80;26.50
12700;DHT22;6414;49.570;6.060;2023-07-13T16:23:01;23.00;30.60
12700;DHT22;6414;49.570;6.060;2023-07-13T16:25:48;23.00;30.90
12700;DHT22;6414;49.570;6.060;2023-07-13T16:28:34;22.90;9.90
12700;DHT22;6414;49.570;6.060;2023-07-13T16:31:20;22.90;8.80
12700;DHT22;6414;49.570;6.060;2023-07-13T16:34:06;22.60;1.00
12700;DHT22;6414;49.570;6.060;2023-07-13T16:36:52;22.50;12.30
12700;DHT22;6414;49.570;6.060;2023-07-13T16:39:38;22.40;32.10
12700;DHT22;6414;49.570;6.060;2023-07-13T16:42:24;22.30;43.00
12700;DHT22;6414;49.570;6.060;2023-07-13T16:45:11;22.20;33.20
12700;DHT22;6414;49.570;6.060;2023-07-13T16:47:57;22.20;30.40
12700;DHT22;6414;49.570;6.060;2023-07-13T16:50:45;22.10;39.30
12700;DHT22;6414;49.570;6.060;2023-07-13T16:53:31;22.10;7.80
12700;DHT22;6414;49.570;6.060;2023-07-13T16:56:17;22.10;7.30
12700;DHT22;6414;49.570;6.060;2023-07-13T16:59:09;22.20;56.50
12700;DHT22;6414;49.570;6.060;2023-07-13T17:01:50;22.20;59.20
12700;DHT22;6414;49.570;6.060;2023-07-13T17:04:36;22.30;99.90
12700;DHT22;6414;49.570;6.060;2023-07-13T17:07:23;22.30;99.90
12700;DHT22;6414;49.570;6.060;2023-07-13T17:10:15;22.20;90.70
12700;DHT22;6414;49.570;6.060;2023-07-13T17:12:57;21.90;99.90
12700;DHT22;6414;49.570;6.060;2023-07-13T17:15:44;21.90;99.90
12700;DHT22;6414;49.570;6.060;2023-07-13T17:18:30;21.70;99.90
12700;DHT22;6414;49.570;6.060;2023-07-13T17:21:18;21.60;99.90
12700;DHT22;6414;49.570;6.060;2023-07-13T17:24:18;21.80;99.90
12700;DHT22;6414;49.570;6.060;2023-07-13T17:27:03;21.80;99.90
12700;DHT22;6414;49.570;6.060;2023-07-13T17:29:50;21.90;97.50
12700;DHT22;6414;49.570;6.060;2023-07-13T17:32:36;21.90;97.20
12700;DHT22;6414;49.570;6.060;2023-07-13T17:35:24;21.90;99.30
12700;DHT22;6414;49.570;6.060;2023-07-13T17:38:09;21.90;99.90
12700;DHT22;6414;49.570;6.060;2023-07-13T17:40:54;21.90;99.90
12700;DHT22;6414;49.570;6.060;2023-07-13T17:43:41;21.90;99.90
12700;DHT22;6414;49.570;6.060;2023-07-13T17:46:30;21.90;99.90
12700;DHT22;6414;49.570;6.060;2023-07-13T17:49:20;21.80;99.90
12700;DHT22;6414;49.570;6.060;2023-07-13T17:52:07;21.70;99.90
12700;DHT22;6414;49.570;6.060;2023-07-13T17:54:52;21.70;99.90
12700;DHT22;6414;49.570;6.060;2023-07-13T17:57:38;21.60;99.90
12700;DHT22;6414;49.570;6.060;2023-07-13T18:00:24;21.60;99.90
12700;DHT22;6414;49.570;6.060;2023-07-13T18:03:13;21.50;99.90
12700;DHT22;6414;49.570;6.060;2023-07-13T18:06:03;21.40;99.90
12700;DHT22;6414;49.570;6.060;2023-07-13T18:08:59;21.40;99.90
12700;DHT22;6414;49.570;6.060;2023-07-13T18:11:44;21.40;99.90